CheckWX is a tool to help pilots better visualize weather data.  It is not intended as a substitute for an official pre-flight weather briefing.

01:19:01 UTC

CBBC METAR
Bella Bella / Campbell Island Airport
Bella Bella, Canada
Current

1 hour ago

CBBC 240000Z AUTO 34006KT 290V360 9SM SCT070 12/02 A3020 RMK SLP228
Observed
Mar-24 @ 00:00 UTC
Wind
  • 340° at 6 KTS
Visibility
9 SM
Flight Rules
VFR
Cloud Levels
  • Scattered at 7,000' AGL
Temperature
12°C / 54°F
Dewpoint
C / 36°F
Humidity
51%
Altimeter
30.2" Hg
Pressure
1022.8 hPa
Previous

2 hours ago

CBBC 232300Z AUTO VRB05KT 9SM FEW075 13/03 A3020 RMK SLP228
Observed
Mar-23 @ 23:00 UTC
Wind
  • Variable at 5 KTS
Visibility
9 SM
Flight Rules
VFR
Cloud Levels
  • Few at 7,500' AGL
Temperature
13°C / 55°F
Dewpoint
C / 37°F
Humidity
51%
Altimeter
30.2" Hg
Pressure
1022.8 hPa
Previous

3 hours ago

CBBC 232233Z AUTO 17004KT 140V240 9SM FEW040 SCT048 SCT060 SCT078 12/02 A3020 RMK SLP228
Observed
Mar-23 @ 22:33 UTC
Wind
  • 170° at 4 KTS
Visibility
9 SM
Flight Rules
VFR
Cloud Levels
  • Few at 4,000' AGL
  • Scattered at 4,800' AGL
  • Scattered at 6,000' AGL
  • Scattered at 7,800' AGL
Temperature
12°C / 54°F
Dewpoint
C / 36°F
Humidity
51%
Altimeter
30.2" Hg
Pressure
1022.8 hPa